sensor_id;sensor_type;location;lat;lon;timestamp;P1;durP1;ratioP1;P2;durP2;ratioP2
74415;SDS011;62850;42.428;25.618;2023-11-21T00:02:12;7.28;;;3.15;;
74415;SDS011;62850;42.428;25.618;2023-11-21T00:04:38;7.90;;;3.20;;
74415;SDS011;62850;42.428;25.618;2023-11-21T00:07:03;7.68;;;3.00;;
74415;SDS011;62850;42.428;25.618;2023-11-21T00:09:29;9.55;;;3.10;;
74415;SDS011;62850;42.428;25.618;2023-11-21T00:11:54;8.55;;;3.00;;
74415;SDS011;62850;42.428;25.618;2023-11-21T00:14:20;9.00;;;2.60;;
74415;SDS011;62850;42.428;25.618;2023-11-21T00:16:45;9.30;;;3.47;;
74415;SDS011;62850;42.428;25.618;2023-11-21T00:19:11;17.50;;;5.90;;
74415;SDS011;62850;42.428;25.618;2023-11-21T00:21:37;8.02;;;3.47;;
74415;SDS011;62850;42.428;25.618;2023-11-21T00:24:03;9.48;;;4.43;;
74415;SDS011;62850;42.428;25.618;2023-11-21T00:26:28;9.95;;;3.67;;
74415;SDS011;62850;42.428;25.618;2023-11-21T00:28:56;11.35;;;4.05;;
74415;SDS011;62850;42.428;25.618;2023-11-21T00:31:21;7.07;;;3.00;;
74415;SDS011;62850;42.428;25.618;2023-11-21T00:33:47;9.35;;;3.15;;
74415;SDS011;62850;42.428;25.618;2023-11-21T00:36:13;6.95;;;2.50;;
74415;SDS011;62850;42.428;25.618;2023-11-21T00:38:38;4.78;;;2.30;;
74415;SDS011;62850;42.428;25.618;2023-11-21T00:41:05;4.63;;;2.00;;
74415;SDS011;62850;42.428;25.618;2023-11-21T00:43:31;4.47;;;1.95;;
74415;SDS011;62850;42.428;25.618;2023-11-21T00:45:58;4.60;;;1.90;;
74415;SDS011;62850;42.428;25.618;2023-11-21T00:48:24;4.10;;;1.70;;
74415;SDS011;62850;42.428;25.618;2023-11-21T00:50:49;4.03;;;1.77;;
74415;SDS011;62850;42.428;25.618;2023-11-21T00:53:15;5.45;;;1.75;;
74415;SDS011;62850;42.428;25.618;2023-11-21T00:55:41;5.07;;;1.85;;
74415;SDS011;62850;42.428;25.618;2023-11-21T00:58:06;4.53;;;1.80;;
74415;SDS011;62850;42.428;25.618;2023-11-21T01:00:35;6.65;;;2.58;;
74415;SDS011;62850;42.428;25.618;2023-11-21T01:03:00;5.85;;;1.80;;
74415;SDS011;62850;42.428;25.618;2023-11-21T01:05:26;4.18;;;1.50;;
74415;SDS011;62850;42.428;25.618;2023-11-21T01:07:52;4.35;;;1.60;;
74415;SDS011;62850;42.428;25.618;2023-11-21T01:10:17;3.85;;;1.60;;
74415;SDS011;62850;42.428;25.618;2023-11-21T01:12:43;4.50;;;1.85;;
74415;SDS011;62850;42.428;25.618;2023-11-21T01:15:09;4.90;;;1.63;;
74415;SDS011;62850;42.428;25.618;2023-11-21T01:17:37;3.35;;;1.45;;
74415;SDS011;62850;42.428;25.618;2023-11-21T01:20:03;3.70;;;1.42;;
74415;SDS011;62850;42.428;25.618;2023-11-21T01:22:36;3.95;;;1.40;;
74415;SDS011;62850;42.428;25.618;2023-11-21T01:25:01;3.20;;;1.45;;
74415;SDS011;62850;42.428;25.618;2023-11-21T01:27:29;5.32;;;1.40;;
74415;SDS011;62850;42.428;25.618;2023-11-21T01:29:55;4.93;;;2.28;;
74415;SDS011;62850;42.428;25.618;2023-11-21T01:32:20;6.35;;;2.65;;
74415;SDS011;62850;42.428;25.618;2023-11-21T01:34:47;5.93;;;2.10;;
74415;SDS011;62850;42.428;25.618;2023-11-21T01:37:13;5.90;;;2.30;;
74415;SDS011;62850;42.428;25.618;2023-11-21T01:39:38;6.05;;;2.50;;
74415;SDS011;62850;42.428;25.618;2023-11-21T01:42:05;7.15;;;2.67;;
74415;SDS011;62850;42.428;25.618;2023-11-21T01:44:31;6.47;;;2.63;;
74415;SDS011;62850;42.428;25.618;2023-11-21T01:46:56;6.50;;;3.08;;
74415;SDS011;62850;42.428;25.618;2023-11-21T01:49:22;7.47;;;3.00;;
74415;SDS011;62850;42.428;25.618;2023-11-21T01:51:48;6.97;;;3.22;;
74415;SDS011;62850;42.428;25.618;2023-11-21T01:54:16;13.32;;;4.03;;
74415;SDS011;62850;42.428;25.618;2023-11-21T01:56:43;7.35;;;3.20;;
74415;SDS011;62850;42.428;25.618;2023-11-21T01:59:11;6.10;;;2.63;;
74415;SDS011;62850;42.428;25.618;2023-11-21T02:01:39;6.53;;;2.88;;
74415;SDS011;62850;42.428;25.618;2023-11-21T02:04:06;6.28;;;3.17;;
74415;SDS011;62850;42.428;25.618;2023-11-21T02:06:33;7.63;;;2.92;;
74415;SDS011;62850;42.428;25.618;2023-11-21T02:08:59;5.75;;;2.13;;
74415;SDS011;62850;42.428;25.618;2023-11-21T02:11:24;6.53;;;2.53;;
74415;SDS011;62850;42.428;25.618;2023-11-21T02:13:50;3.97;;;1.85;;
74415;SDS011;62850;42.428;25.618;2023-11-21T02:16:19;6.00;;;2.20;;
74415;SDS011;62850;42.428;25.618;2023-11-21T02:18:46;8.13;;;2.30;;
74415;SDS011;62850;42.428;25.618;2023-11-21T02:21:13;7.63;;;2.30;;
74415;SDS011;62850;42.428;25.618;2023-11-21T02:23:39;8.98;;;2.25;;
74415;SDS011;62850;42.428;25.618;2023-11-21T02:26:09;4.88;;;1.98;;
74415;SDS011;62850;42.428;25.618;2023-11-21T02:28:35;4.72;;;2.03;;
74415;SDS011;62850;42.428;25.618;2023-11-21T02:31:01;6.63;;;2.20;;
74415;SDS011;62850;42.428;25.618;2023-11-21T02:33:29;3.97;;;1.70;;
74415;SDS011;62850;42.428;25.618;2023-11-21T02:35:55;5.25;;;2.03;;
74415;SDS011;62850;42.428;25.618;2023-11-21T02:38:21;5.60;;;2.00;;
74415;SDS011;62850;42.428;25.618;2023-11-21T02:40:46;4.35;;;1.63;;
74415;SDS011;62850;42.428;25.618;2023-11-21T02:43:12;4.88;;;1.73;;
74415;SDS011;62850;42.428;25.618;2023-11-21T02:45:38;4.88;;;2.28;;
74415;SDS011;62850;42.428;25.618;2023-11-21T02:48:03;4.57;;;2.15;;
74415;SDS011;62850;42.428;25.618;2023-11-21T02:50:29;5.50;;;1.90;;
74415;SDS011;62850;42.428;25.618;2023-11-21T02:52:55;6.13;;;1.75;;
74415;SDS011;62850;42.428;25.618;2023-11-21T02:55:22;4.40;;;1.75;;
74415;SDS011;62850;42.428;25.618;2023-11-21T02:57:50;4.25;;;1.80;;
74415;SDS011;62850;42.428;25.618;2023-11-21T03:00:16;5.13;;;1.92;;
74415;SDS011;62850;42.428;25.618;2023-11-21T03:02:41;4.07;;;1.83;;
74415;SDS011;62850;42.428;25.618;2023-11-21T03:05:08;5.50;;;2.08;;
74415;SDS011;62850;42.428;25.618;2023-11-21T03:07:34;4.10;;;1.67;;
74415;SDS011;62850;42.428;25.618;2023-11-21T03:10:00;4.57;;;1.85;;
74415;SDS011;62850;42.428;25.618;2023-11-21T03:12:25;4.20;;;1.80;;
74415;SDS011;62850;42.428;25.618;2023-11-21T03:14:53;6.85;;;2.13;;
74415;SDS011;62850;42.428;25.618;2023-11-21T03:17:19;4.32;;;1.60;;
74415;SDS011;62850;42.428;25.618;2023-11-21T03:19:44;7.13;;;2.10;;
74415;SDS011;62850;42.428;25.618;2023-11-21T03:22:10;3.47;;;1.63;;
74415;SDS011;62850;42.428;25.618;2023-11-21T03:24:36;5.10;;;1.95;;
74415;SDS011;62850;42.428;25.618;2023-11-21T03:27:03;6.70;;;1.90;;
74415;SDS011;62850;42.428;25.618;2023-11-21T03:29:29;6.00;;;2.35;;
74415;SDS011;62850;42.428;25.618;2023-11-21T03:31:55;7.40;;;2.60;;
74415;SDS011;62850;42.428;25.618;2023-11-21T03:34:24;6.57;;;2.80;;
74415;SDS011;62850;42.428;25.618;2023-11-21T03:36:51;7.03;;;3.30;;
74415;SDS011;62850;42.428;25.618;2023-11-21T03:39:18;6.25;;;2.92;;
74415;SDS011;62850;42.428;25.618;2023-11-21T03:41:45;6.25;;;2.60;;
74415;SDS011;62850;42.428;25.618;2023-11-21T03:44:11;4.80;;;2.22;;
74415;SDS011;62850;42.428;25.618;2023-11-21T03:46:36;6.78;;;2.25;;
74415;SDS011;62850;42.428;25.618;2023-11-21T03:49:02;5.32;;;2.10;;
74415;SDS011;62850;42.428;25.618;2023-11-21T03:51:27;5.90;;;1.92;;
74415;SDS011;62850;42.428;25.618;2023-11-21T03:53:53;4.82;;;2.10;;
74415;SDS011;62850;42.428;25.618;2023-11-21T03:56:19;6.97;;;2.20;;
74415;SDS011;62850;42.428;25.618;2023-11-21T03:58:47;5.55;;;2.45;;
74415;SDS011;62850;42.428;25.618;2023-11-21T04:01:19;5.63;;;2.28;;
74415;SDS011;62850;42.428;25.618;2023-11-21T04:03:46;5.85;;;2.05;;
74415;SDS011;62850;42.428;25.618;2023-11-21T04:06:12;5.40;;;2.10;;
74415;SDS011;62850;42.428;25.618;2023-11-21T04:08:38;5.78;;;2.38;;
74415;SDS011;62850;42.428;25.618;2023-11-21T04:11:03;6.07;;;2.22;;
74415;SDS011;62850;42.428;25.618;2023-11-21T04:13:29;5.38;;;2.38;;
74415;SDS011;62850;42.428;25.618;2023-11-21T04:15:55;5.63;;;2.58;;
74415;SDS011;62850;42.428;25.618;2023-11-21T04:18:21;6.40;;;2.67;;
74415;SDS011;62850;42.428;25.618;2023-11-21T04:20:48;6.88;;;2.40;;
74415;SDS011;62850;42.428;25.618;2023-11-21T04:23:14;4.65;;;2.13;;
74415;SDS011;62850;42.428;25.618;2023-11-21T04:25:40;6.38;;;2.55;;
74415;SDS011;62850;42.428;25.618;2023-11-21T04:28:05;6.97;;;2.83;;
74415;SDS011;62850;42.428;25.618;2023-11-21T04:30:31;11.82;;;4.93;;
74415;SDS011;62850;42.428;25.618;2023-11-21T04:32:57;12.35;;;4.55;;
74415;SDS011;62850;42.428;25.618;2023-11-21T04:35:23;9.88;;;3.45;;
74415;SDS011;62850;42.428;25.618;2023-11-21T04:37:49;10.18;;;3.70;;
74415;SDS011;62850;42.428;25.618;2023-11-21T04:40:16;13.45;;;4.20;;
74415;SDS011;62850;42.428;25.618;2023-11-21T04:42:41;13.73;;;4.07;;
74415;SDS011;62850;42.428;25.618;2023-11-21T04:45:07;7.35;;;3.13;;
74415;SDS011;62850;42.428;25.618;2023-11-21T04:47:34;11.48;;;3.17;;
74415;SDS011;62850;42.428;25.618;2023-11-21T04:50:00;9.05;;;2.95;;
74415;SDS011;62850;42.428;25.618;2023-11-21T04:52:26;9.10;;;3.65;;
74415;SDS011;62850;42.428;25.618;2023-11-21T04:54:52;6.07;;;3.00;;
74415;SDS011;62850;42.428;25.618;2023-11-21T04:57:19;7.95;;;2.50;;
74415;SDS011;62850;42.428;25.618;2023-11-21T04:59:45;6.10;;;2.50;;
74415;SDS011;62850;42.428;25.618;2023-11-21T05:02:11;5.93;;;2.70;;
74415;SDS011;62850;42.428;25.618;2023-11-21T05:04:37;6.95;;;2.88;;
74415;SDS011;62850;42.428;25.618;2023-11-21T05:07:03;5.85;;;2.80;;
74415;SDS011;62850;42.428;25.618;2023-11-21T05:09:28;8.30;;;3.28;;
74415;SDS011;62850;42.428;25.618;2023-11-21T05:11:57;5.90;;;2.90;;
74415;SDS011;62850;42.428;25.618;2023-11-21T05:14:22;9.15;;;3.38;;
74415;SDS011;62850;42.428;25.618;2023-11-21T05:16:48;6.90;;;3.03;;
74415;SDS011;62850;42.428;25.618;2023-11-21T05:19:15;8.52;;;3.97;;
74415;SDS011;62850;42.428;25.618;2023-11-21T05:21:41;16.30;;;6.10;;
74415;SDS011;62850;42.428;25.618;2023-11-21T05:24:06;15.57;;;6.35;;
74415;SDS011;62850;42.428;25.618;2023-11-21T05:26:32;13.25;;;7.05;;
74415;SDS011;62850;42.428;25.618;2023-11-21T05:28:58;14.57;;;6.35;;
74415;SDS011;62850;42.428;25.618;2023-11-21T05:31:23;16.30;;;7.07;;
74415;SDS011;62850;42.428;25.618;2023-11-21T05:33:49;18.73;;;8.13;;
74415;SDS011;62850;42.428;25.618;2023-11-21T05:36:14;15.35;;;7.85;;
74415;SDS011;62850;42.428;25.618;2023-11-21T05:38:40;14.75;;;7.28;;
74415;SDS011;62850;42.428;25.618;2023-11-21T05:41:06;19.38;;;7.53;;
74415;SDS011;62850;42.428;25.618;2023-11-21T05:43:33;15.15;;;6.68;;
74415;SDS011;62850;42.428;25.618;2023-11-21T05:46:00;11.30;;;4.95;;
74415;SDS011;62850;42.428;25.618;2023-11-21T05:48:26;14.18;;;5.28;;
74415;SDS011;62850;42.428;25.618;2023-11-21T05:50:52;14.65;;;5.18;;
74415;SDS011;62850;42.428;25.618;2023-11-21T05:53:17;10.98;;;5.65;;
74415;SDS011;62850;42.428;25.618;2023-11-21T05:55:43;12.63;;;5.13;;
74415;SDS011;62850;42.428;25.618;2023-11-21T05:58:09;10.60;;;4.65;;
74415;SDS011;62850;42.428;25.618;2023-11-21T06:00:34;11.73;;;6.25;;
74415;SDS011;62850;42.428;25.618;2023-11-21T06:03:00;14.45;;;5.93;;
74415;SDS011;62850;42.428;25.618;2023-11-21T06:05:26;12.45;;;6.60;;
74415;SDS011;62850;42.428;25.618;2023-11-21T06:07:52;17.75;;;7.35;;
74415;SDS011;62850;42.428;25.618;2023-11-21T06:10:21;14.20;;;6.57;;
74415;SDS011;62850;42.428;25.618;2023-11-21T06:12:48;15.93;;;6.90;;
74415;SDS011;62850;42.428;25.618;2023-11-21T06:15:14;14.55;;;6.50;;
74415;SDS011;62850;42.428;25.618;2023-11-21T06:17:41;12.07;;;5.47;;
74415;SDS011;62850;42.428;25.618;2023-11-21T06:20:08;15.15;;;6.10;;
74415;SDS011;62850;42.428;25.618;2023-11-21T06:22:44;13.48;;;5.30;;
74415;SDS011;62850;42.428;25.618;2023-11-21T06:25:11;10.40;;;5.22;;
74415;SDS011;62850;42.428;25.618;2023-11-21T06:27:45;9.98;;;5.28;;
74415;SDS011;62850;42.428;25.618;2023-11-21T06:30:12;10.93;;;4.93;;
74415;SDS011;62850;42.428;25.618;2023-11-21T06:32:39;12.65;;;4.70;;
74415;SDS011;62850;42.428;25.618;2023-11-21T06:35:05;13.77;;;5.70;;
74415;SDS011;62850;42.428;25.618;2023-11-21T06:37:32;12.77;;;6.18;;
74415;SDS011;62850;42.428;25.618;2023-11-21T06:39:58;14.77;;;7.40;;
74415;SDS011;62850;42.428;25.618;2023-11-21T06:42:25;19.23;;;7.72;;
74415;SDS011;62850;42.428;25.618;2023-11-21T06:44:51;18.13;;;8.45;;
74415;SDS011;62850;42.428;25.618;2023-11-21T06:47:20;17.88;;;9.38;;
74415;SDS011;62850;42.428;25.618;2023-11-21T06:49:45;22.40;;;8.70;;
74415;SDS011;62850;42.428;25.618;2023-11-21T06:52:13;17.70;;;9.80;;
74415;SDS011;62850;42.428;25.618;2023-11-21T06:54:38;31.10;;;10.82;;
74415;SDS011;62850;42.428;25.618;2023-11-21T06:57:04;22.92;;;8.50;;
74415;SDS011;62850;42.428;25.618;2023-11-21T06:59:29;22.50;;;8.45;;
74415;SDS011;62850;42.428;25.618;2023-11-21T07:01:55;14.77;;;8.32;;
74415;SDS011;62850;42.428;25.618;2023-11-21T07:04:20;14.23;;;8.00;;
74415;SDS011;62850;42.428;25.618;2023-11-21T07:06:46;18.60;;;7.03;;
74415;SDS011;62850;42.428;25.618;2023-11-21T07:09:11;11.75;;;5.05;;
74415;SDS011;62850;42.428;25.618;2023-11-21T07:11:37;9.52;;;4.05;;
74415;SDS011;62850;42.428;25.618;2023-11-21T07:14:03;12.82;;;4.03;;
74415;SDS011;62850;42.428;25.618;2023-11-21T07:16:36;8.73;;;3.67;;
74415;SDS011;62850;42.428;25.618;2023-11-21T07:19:05;11.35;;;3.95;;
74415;SDS011;62850;42.428;25.618;2023-11-21T07:21:34;10.60;;;4.55;;
74415;SDS011;62850;42.428;25.618;2023-11-21T07:24:01;9.82;;;4.55;;
74415;SDS011;62850;42.428;25.618;2023-11-21T07:26:29;11.98;;;4.80;;
74415;SDS011;62850;42.428;25.618;2023-11-21T07:28:55;12.38;;;5.72;;
74415;SDS011;62850;42.428;25.618;2023-11-21T07:31:21;15.73;;;5.93;;
74415;SDS011;62850;42.428;25.618;2023-11-21T07:33:47;16.20;;;6.80;;
74415;SDS011;62850;42.428;25.618;2023-11-21T07:36:13;13.88;;;7.00;;
74415;SDS011;62850;42.428;25.618;2023-11-21T07:38:39;16.27;;;7.00;;
74415;SDS011;62850;42.428;25.618;2023-11-21T07:41:05;20.80;;;7.47;;
74415;SDS011;62850;42.428;25.618;2023-11-21T07:43:32;20.48;;;8.38;;
74415;SDS011;62850;42.428;25.618;2023-11-21T07:46:03;15.00;;;6.18;;
74415;SDS011;62850;42.428;25.618;2023-11-21T07:48:29;13.05;;;5.20;;
74415;SDS011;62850;42.428;25.618;2023-11-21T07:50:56;10.20;;;4.35;;
74415;SDS011;62850;42.428;25.618;2023-11-21T07:53:23;10.57;;;4.07;;
74415;SDS011;62850;42.428;25.618;2023-11-21T07:55:50;9.57;;;3.55;;
74415;SDS011;62850;42.428;25.618;2023-11-21T07:58:17;11.50;;;4.47;;
74415;SDS011;62850;42.428;25.618;2023-11-21T08:00:43;16.85;;;4.00;;
74415;SDS011;62850;42.428;25.618;2023-11-21T08:03:09;10.63;;;3.95;;
74415;SDS011;62850;42.428;25.618;2023-11-21T08:05:34;8.82;;;4.00;;
74415;SDS011;62850;42.428;25.618;2023-11-21T08:08:00;10.73;;;4.03;;
74415;SDS011;62850;42.428;25.618;2023-11-21T08:10:26;9.68;;;3.75;;
74415;SDS011;62850;42.428;25.618;2023-11-21T08:12:51;9.90;;;4.10;;
74415;SDS011;62850;42.428;25.618;2023-11-21T08:15:19;12.30;;;4.82;;
74415;SDS011;62850;42.428;25.618;2023-11-21T08:17:46;11.18;;;4.80;;
74415;SDS011;62850;42.428;25.618;2023-11-21T08:20:11;9.65;;;4.18;;
74415;SDS011;62850;42.428;25.618;2023-11-21T08:22:37;10.05;;;4.13;;
74415;SDS011;62850;42.428;25.618;2023-11-21T08:25:06;12.70;;;5.03;;
74415;SDS011;62850;42.428;25.618;2023-11-21T08:27:33;12.77;;;5.30;;
74415;SDS011;62850;42.428;25.618;2023-11-21T08:29:59;9.82;;;4.35;;
74415;SDS011;62850;42.428;25.618;2023-11-21T08:32:28;14.98;;;5.18;;
74415;SDS011;62850;42.428;25.618;2023-11-21T08:34:57;12.88;;;5.32;;
74415;SDS011;62850;42.428;25.618;2023-11-21T08:37:23;11.13;;;5.05;;
74415;SDS011;62850;42.428;25.618;2023-11-21T08:39:49;11.88;;;4.72;;
74415;SDS011;62850;42.428;25.618;2023-11-21T08:42:14;10.30;;;4.57;;
74415;SDS011;62850;42.428;25.618;2023-11-21T08:44:40;11.15;;;4.70;;
74415;SDS011;62850;42.428;25.618;2023-11-21T08:47:06;11.60;;;4.25;;
74415;SDS011;62850;42.428;25.618;2023-11-21T08:49:32;7.13;;;3.20;;
74415;SDS011;62850;42.428;25.618;2023-11-21T08:51:58;7.93;;;3.03;;
74415;SDS011;62850;42.428;25.618;2023-11-21T08:54:25;7.70;;;2.80;;
74415;SDS011;62850;42.428;25.618;2023-11-21T08:56:51;7.07;;;2.75;;
74415;SDS011;62850;42.428;25.618;2023-11-21T08:59:17;6.35;;;2.63;;
74415;SDS011;62850;42.428;25.618;2023-11-21T09:01:45;6.88;;;2.72;;
74415;SDS011;62850;42.428;25.618;2023-11-21T09:04:11;5.10;;;2.53;;
74415;SDS011;62850;42.428;25.618;2023-11-21T09:06:37;7.10;;;2.55;;
74415;SDS011;62850;42.428;25.618;2023-11-21T09:09:03;6.03;;;2.28;;
74415;SDS011;62850;42.428;25.618;2023-11-21T09:11:30;5.47;;;2.20;;
74415;SDS011;62850;42.428;25.618;2023-11-21T09:14:00;5.88;;;2.20;;
74415;SDS011;62850;42.428;25.618;2023-11-21T09:16:26;4.20;;;2.30;;
74415;SDS011;62850;42.428;25.618;2023-11-21T09:18:51;8.25;;;2.83;;
74415;SDS011;62850;42.428;25.618;2023-11-21T09:21:17;5.18;;;2.65;;
74415;SDS011;62850;42.428;25.618;2023-11-21T09:23:46;5.35;;;2.70;;
74415;SDS011;62850;42.428;25.618;2023-11-21T09:26:11;8.10;;;3.28;;
74415;SDS011;62850;42.428;25.618;2023-11-21T09:28:37;6.57;;;2.67;;
74415;SDS011;62850;42.428;25.618;2023-11-21T09:31:03;7.03;;;2.60;;
74415;SDS011;62850;42.428;25.618;2023-11-21T09:33:30;7.20;;;2.95;;
74415;SDS011;62850;42.428;25.618;2023-11-21T09:35:56;6.35;;;2.78;;
74415;SDS011;62850;42.428;25.618;2023-11-21T09:38:22;5.75;;;2.53;;
74415;SDS011;62850;42.428;25.618;2023-11-21T09:40:48;10.73;;;3.13;;
74415;SDS011;62850;42.428;25.618;2023-11-21T09:43:18;7.07;;;2.45;;
74415;SDS011;62850;42.428;25.618;2023-11-21T09:45:48;6.40;;;2.80;;
74415;SDS011;62850;42.428;25.618;2023-11-21T09:48:24;4.85;;;2.45;;
74415;SDS011;62850;42.428;25.618;2023-11-21T09:50:51;6.90;;;3.15;;
74415;SDS011;62850;42.428;25.618;2023-11-21T09:53:19;6.38;;;3.38;;
74415;SDS011;62850;42.428;25.618;2023-11-21T09:55:46;7.43;;;3.22;;
74415;SDS011;62850;42.428;25.618;2023-11-21T09:58:16;6.97;;;3.05;;
74415;SDS011;62850;42.428;25.618;2023-11-21T10:00:46;6.93;;;2.92;;
74415;SDS011;62850;42.428;25.618;2023-11-21T10:03:13;7.07;;;2.83;;
74415;SDS011;62850;42.428;25.618;2023-11-21T10:05:39;8.90;;;2.85;;
74415;SDS011;62850;42.428;25.618;2023-11-21T10:08:07;7.28;;;3.08;;
74415;SDS011;62850;42.428;25.618;2023-11-21T10:10:35;8.50;;;4.13;;
74415;SDS011;62850;42.428;25.618;2023-11-21T10:13:01;9.18;;;3.92;;
74415;SDS011;62850;42.428;25.618;2023-11-21T10:15:31;10.85;;;4.07;;
74415;SDS011;62850;42.428;25.618;2023-11-21T10:17:59;8.38;;;3.78;;
74415;SDS011;62850;42.428;25.618;2023-11-21T10:20:31;7.82;;;3.90;;
74415;SDS011;62850;42.428;25.618;2023-11-21T10:22:58;7.80;;;3.78;;
74415;SDS011;62850;42.428;25.618;2023-11-21T10:25:26;7.93;;;3.95;;
74415;SDS011;62850;42.428;25.618;2023-11-21T10:27:54;7.35;;;3.13;;
74415;SDS011;62850;42.428;25.618;2023-11-21T10:30:24;5.78;;;2.80;;
74415;SDS011;62850;42.428;25.618;2023-11-21T10:32:58;6.55;;;2.90;;
74415;SDS011;62850;42.428;25.618;2023-11-21T10:35:37;6.18;;;3.13;;
74415;SDS011;62850;42.428;25.618;2023-11-21T10:40:29;6.35;;;3.00;;
74415;SDS011;62850;42.428;25.618;2023-11-21T10:42:54;7.10;;;3.10;;
74415;SDS011;62850;42.428;25.618;2023-11-21T10:45:33;8.05;;;3.03;;
74415;SDS011;62850;42.428;25.618;2023-11-21T10:47:59;8.52;;;4.03;;
74415;SDS011;62850;42.428;25.618;2023-11-21T10:50:25;6.32;;;3.50;;
74415;SDS011;62850;42.428;25.618;2023-11-21T10:52:51;7.88;;;3.40;;
74415;SDS011;62850;42.428;25.618;2023-11-21T10:55:20;7.30;;;3.47;;
74415;SDS011;62850;42.428;25.618;2023-11-21T10:57:51;8.98;;;4.30;;
74415;SDS011;62850;42.428;25.618;2023-11-21T11:00:18;8.35;;;3.47;;
74415;SDS011;62850;42.428;25.618;2023-11-21T11:02:46;6.55;;;3.13;;
74415;SDS011;62850;42.428;25.618;2023-11-21T11:05:15;10.32;;;3.30;;
74415;SDS011;62850;42.428;25.618;2023-11-21T11:07:44;10.43;;;3.47;;
74415;SDS011;62850;42.428;25.618;2023-11-21T11:10:19;7.63;;;3.10;;
74415;SDS011;62850;42.428;25.618;2023-11-21T11:12:47;8.40;;;3.20;;
74415;SDS011;62850;42.428;25.618;2023-11-21T11:15:13;9.60;;;3.55;;
74415;SDS011;62850;42.428;25.618;2023-11-21T11:17:41;7.75;;;3.00;;
74415;SDS011;62850;42.428;25.618;2023-11-21T11:20:09;8.18;;;3.83;;
74415;SDS011;62850;42.428;25.618;2023-11-21T11:22:42;7.78;;;3.58;;
74415;SDS011;62850;42.428;25.618;2023-11-21T11:30:43;21.35;;;5.55;;
74415;SDS011;62850;42.428;25.618;2023-11-21T11:36:11;9.68;;;4.03;;
74415;SDS011;62850;42.428;25.618;2023-11-21T11:38:45;9.88;;;4.80;;
74415;SDS011;62850;42.428;25.618;2023-11-21T11:41:11;7.55;;;3.85;;
74415;SDS011;62850;42.428;25.618;2023-11-21T11:43:37;7.50;;;3.65;;
74415;SDS011;62850;42.428;25.618;2023-11-21T11:46:09;12.65;;;4.32;;
74415;SDS011;62850;42.428;25.618;2023-11-21T11:48:38;6.38;;;3.30;;
74415;SDS011;62850;42.428;25.618;2023-11-21T11:51:12;8.52;;;4.13;;
74415;SDS011;62850;42.428;25.618;2023-11-21T11:53:46;7.15;;;3.60;;
74415;SDS011;62850;42.428;25.618;2023-11-21T11:56:28;7.68;;;3.85;;
74415;SDS011;62850;42.428;25.618;2023-11-21T11:59:03;9.02;;;4.13;;
74415;SDS011;62850;42.428;25.618;2023-11-21T12:01:29;6.63;;;3.63;;
74415;SDS011;62850;42.428;25.618;2023-11-21T12:06:42;8.13;;;4.55;;
74415;SDS011;62850;42.428;25.618;2023-11-21T12:09:18;10.05;;;5.20;;
74415;SDS011;62850;42.428;25.618;2023-11-21T12:11:50;7.97;;;3.95;;
74415;SDS011;62850;42.428;25.618;2023-11-21T12:14:16;10.25;;;4.68;;
74415;SDS011;62850;42.428;25.618;2023-11-21T12:16:43;8.80;;;4.43;;
74415;SDS011;62850;42.428;25.618;2023-11-21T12:19:11;9.02;;;4.38;;
74415;SDS011;62850;42.428;25.618;2023-11-21T12:21:37;12.88;;;5.50;;
74415;SDS011;62850;42.428;25.618;2023-11-21T12:24:06;11.38;;;4.90;;
74415;SDS011;62850;42.428;25.618;2023-11-21T12:26:34;14.52;;;5.38;;
74415;SDS011;62850;42.428;25.618;2023-11-21T12:29:01;9.10;;;4.80;;
74415;SDS011;62850;42.428;25.618;2023-11-21T12:31:28;10.50;;;4.93;;
74415;SDS011;62850;42.428;25.618;2023-11-21T12:33:54;9.73;;;4.55;;
74415;SDS011;62850;42.428;25.618;2023-11-21T12:36:21;6.85;;;4.25;;
74415;SDS011;62850;42.428;25.618;2023-11-21T12:38:47;6.90;;;3.67;;
74415;SDS011;62850;42.428;25.618;2023-11-21T12:41:12;8.27;;;3.67;;
74415;SDS011;62850;42.428;25.618;2023-11-21T12:43:38;6.47;;;3.42;;
74415;SDS011;62850;42.428;25.618;2023-11-21T12:46:10;7.90;;;3.83;;
74415;SDS011;62850;42.428;25.618;2023-11-21T12:48:42;8.68;;;3.92;;
74415;SDS011;62850;42.428;25.618;2023-11-21T12:51:09;7.47;;;3.50;;
74415;SDS011;62850;42.428;25.618;2023-11-21T12:53:37;7.07;;;4.13;;
74415;SDS011;62850;42.428;25.618;2023-11-21T12:56:07;9.45;;;4.57;;
74415;SDS011;62850;42.428;25.618;2023-11-21T12:58:35;12.15;;;5.60;;
74415;SDS011;62850;42.428;25.618;2023-11-21T13:01:02;8.13;;;4.72;;
74415;SDS011;62850;42.428;25.618;2023-11-21T13:03:29;10.32;;;5.35;;
74415;SDS011;62850;42.428;25.618;2023-11-21T13:05:55;11.20;;;5.40;;
74415;SDS011;62850;42.428;25.618;2023-11-21T13:08:22;12.60;;;5.65;;
74415;SDS011;62850;42.428;25.618;2023-11-21T13:10:50;12.98;;;5.95;;
74415;SDS011;62850;42.428;25.618;2023-11-21T13:13:19;14.00;;;6.20;;
74415;SDS011;62850;42.428;25.618;2023-11-21T13:18:15;9.80;;;5.55;;
74415;SDS011;62850;42.428;25.618;2023-11-21T13:20:41;60.28;;;22.63;;
74415;SDS011;62850;42.428;25.618;2023-11-21T13:23:08;41.83;;;17.02;;
74415;SDS011;62850;42.428;25.618;2023-11-21T13:25:37;27.75;;;11.25;;
74415;SDS011;62850;42.428;25.618;2023-11-21T13:28:04;17.70;;;7.38;;
74415;SDS011;62850;42.428;25.618;2023-11-21T13:30:30;15.13;;;6.60;;
74415;SDS011;62850;42.428;25.618;2023-11-21T13:33:04;11.63;;;4.55;;
74415;SDS011;62850;42.428;25.618;2023-11-21T13:35:36;10.23;;;4.85;;
74415;SDS011;62850;42.428;25.618;2023-11-21T13:40:32;7.47;;;3.75;;
74415;SDS011;62850;42.428;25.618;2023-11-21T13:43:11;10.15;;;4.50;;
74415;SDS011;62850;42.428;25.618;2023-11-21T13:45:38;7.85;;;4.13;;
74415;SDS011;62850;42.428;25.618;2023-11-21T13:48:05;10.10;;;3.97;;
74415;SDS011;62850;42.428;25.618;2023-11-21T13:50:38;8.93;;;3.78;;
74415;SDS011;62850;42.428;25.618;2023-11-21T13:53:20;6.72;;;3.67;;
74415;SDS011;62850;42.428;25.618;2023-11-21T13:55:51;8.35;;;3.70;;
74415;SDS011;62850;42.428;25.618;2023-11-21T13:58:22;7.15;;;3.60;;
74415;SDS011;62850;42.428;25.618;2023-11-21T14:00:57;9.27;;;3.83;;
74415;SDS011;62850;42.428;25.618;2023-11-21T14:03:23;7.32;;;3.92;;
74415;SDS011;62850;42.428;25.618;2023-11-21T14:05:57;9.57;;;4.30;;
74415;SDS011;62850;42.428;25.618;2023-11-21T14:08:25;10.13;;;4.43;;
74415;SDS011;62850;42.428;25.618;2023-11-21T14:10:56;12.32;;;4.30;;
74415;SDS011;62850;42.428;25.618;2023-11-21T14:13:25;7.65;;;3.90;;
74415;SDS011;62850;42.428;25.618;2023-11-21T14:15:52;8.35;;;3.47;;
74415;SDS011;62850;42.428;25.618;2023-11-21T14:18:24;12.07;;;6.15;;
74415;SDS011;62850;42.428;25.618;2023-11-21T14:21:00;15.98;;;6.85;;
74415;SDS011;62850;42.428;25.618;2023-11-21T14:23:26;16.85;;;8.18;;
74415;SDS011;62850;42.428;25.618;2023-11-21T14:25:53;16.08;;;7.00;;
74415;SDS011;62850;42.428;25.618;2023-11-21T14:28:19;15.77;;;7.53;;
74415;SDS011;62850;42.428;25.618;2023-11-21T14:30:45;14.32;;;5.93;;
74415;SDS011;62850;42.428;25.618;2023-11-21T14:33:12;16.08;;;6.15;;
74415;SDS011;62850;42.428;25.618;2023-11-21T14:35:40;13.52;;;7.65;;
74415;SDS011;62850;42.428;25.618;2023-11-21T14:38:06;9.68;;;5.20;;
74415;SDS011;62850;42.428;25.618;2023-11-21T14:40:31;10.68;;;5.28;;
74415;SDS011;62850;42.428;25.618;2023-11-21T14:43:01;12.68;;;5.90;;
74415;SDS011;62850;42.428;25.618;2023-11-21T14:45:30;10.32;;;5.40;;
74415;SDS011;62850;42.428;25.618;2023-11-21T14:47:56;11.10;;;5.50;;
74415;SDS011;62850;42.428;25.618;2023-11-21T14:50:31;11.32;;;5.25;;